Time;durP1;ratioP1;P1;durP2;ratioP2;P2;SDS_P1;SDS_P2;PMS_P1;PMS_P2;Temp;Humidity;BMP_temperature;BMP_pressure;BME280_temperature;BME280_humidity;BME280_pressure;Samples;Min_cycle;Max_cycle;Signal;HPM_P1;HPM_P2
2021/03/13 00:00:14;;;;;;;1.30;0.90;;;17.80;65.50;;;;;;5080762;28;20494;-41
2021/03/13 00:02:41;;;;;;;1.40;0.90;;;17.70;65.90;;;;;;5085309;28;20028;-41
2021/03/13 00:05:07;;;;;;;1.63;1.05;;;17.70;66.00;;;;;;5076222;28;20021;-40
2021/03/13 00:07:33;;;;;;;0.95;0.80;;;17.70;65.90;;;;;;5076164;28;20028;-39
2021/03/13 00:09:58;;;;;;;0.90;0.77;;;17.70;65.90;;;;;;5077663;28;20043;-40
2021/03/13 00:12:24;;;;;;;0.80;0.73;;;17.70;66.00;;;;;;5074380;28;20039;-39
2021/03/13 00:14:49;;;;;;;1.33;0.75;;;17.70;65.70;;;;;;5073219;28;20029;-42
2021/03/13 00:17:15;;;;;;;1.45;0.98;;;17.80;65.60;;;;;;5080561;28;20056;-41
2021/03/13 00:19:41;;;;;;;0.98;0.60;;;17.80;65.60;;;;;;5080329;28;20598;-41
2021/03/13 00:22:06;;;;;;;1.15;0.60;;;17.80;65.60;;;;;;5077142;28;20032;-41
2021/03/13 00:24:32;;;;;;;1.15;0.80;;;17.80;65.70;;;;;;5075273;28;20023;-42
2021/03/13 00:26:57;;;;;;;0.90;0.60;;;17.80;65.80;;;;;;5081061;28;20032;-39
2021/03/13 00:29:23;;;;;;;1.05;0.82;;;17.80;65.60;;;;;;5081386;28;20040;-40
2021/03/13 00:31:53;;;;;;;2.50;1.00;;;17.80;65.60;;;;;;5074841;28;20025;-41
2021/03/13 00:34:19;;;;;;;0.75;0.68;;;17.80;65.70;;;;;;5079578;28;20082;-38
2021/03/13 00:36:45;;;;;;;0.80;0.70;;;17.80;65.90;;;;;;5080253;28;20023;-37
2021/03/13 00:39:11;;;;;;;1.17;0.57;;;17.80;65.70;;;;;;5071225;28;20040;-38
2021/03/13 00:41:36;;;;;;;1.02;0.90;;;17.80;65.80;;;;;;5075641;28;20078;-40
2021/03/13 00:44:02;;;;;;;0.88;0.63;;;17.70;65.80;;;;;;5077991;28;20043;-39
2021/03/13 00:46:28;;;;;;;1.23;0.80;;;17.80;66.00;;;;;;5076050;28;20041;-40
2021/03/13 00:48:53;;;;;;;1.17;0.80;;;17.80;65.90;;;;;;5082530;28;20036;-38
2021/03/13 00:51:19;;;;;;;0.98;0.70;;;17.80;65.90;;;;;;5072580;28;20036;-38
2021/03/13 00:53:44;;;;;;;1.40;0.80;;;17.80;65.90;;;;;;5074850;28;20432;-39
2021/03/13 00:56:10;;;;;;;1.20;0.75;;;17.80;65.80;;;;;;5071532;28;20130;-41
2021/03/13 00:58:35;;;;;;;1.67;0.70;;;17.80;65.80;;;;;;5084551;28;20465;-38
2021/03/13 01:01:01;;;;;;;0.88;0.50;;;17.80;65.90;;;;;;5077017;28;20025;-41
2021/03/13 01:03:27;;;;;;;1.00;0.68;;;17.80;65.90;;;;;;5079418;28;20028;-38
2021/03/13 01:05:52;;;;;;;1.00;0.80;;;17.80;65.90;;;;;;5077937;28;20155;-39
2021/03/13 01:08:18;;;;;;;0.80;0.80;;;17.80;65.70;;;;;;5084731;28;20056;-41
2021/03/13 01:10:43;;;;;;;0.70;0.50;;;17.80;65.70;;;;;;5073101;28;20036;-38
2021/03/13 01:13:09;;;;;;;2.00;0.70;;;17.90;65.80;;;;;;5074642;28;20158;-41
2021/03/13 01:15:34;;;;;;;1.23;0.60;;;17.90;65.60;;;;;;5077314;28;20029;-40
2021/03/13 01:18:00;;;;;;;1.85;0.80;;;17.90;65.70;;;;;;5077802;28;20489;-38
2021/03/13 01:20:26;;;;;;;1.13;0.82;;;17.90;65.60;;;;;;5083021;28;20021;-38
2021/03/13 01:22:51;;;;;;;0.60;0.50;;;17.90;65.70;;;;;;5087606;28;20036;-41
2021/03/13 01:25:17;;;;;;;0.82;0.40;;;17.80;65.60;;;;;;5074064;28;20024;-40
2021/03/13 01:27:43;;;;;;;1.08;0.75;;;17.80;65.60;;;;;;5076433;28;20524;-40
2021/03/13 01:30:13;;;;;;;0.68;0.52;;;17.80;65.60;;;;;;5075372;28;20162;-38
2021/03/13 01:32:38;;;;;;;0.85;0.70;;;17.80;65.60;;;;;;5076961;28;20023;-40
2021/03/13 01:35:05;;;;;;;0.90;0.80;;;17.80;65.50;;;;;;5084865;28;20035;-38
2021/03/13 01:37:30;;;;;;;0.82;0.50;;;17.90;65.60;;;;;;5088041;28;20103;-40
2021/03/13 01:39:56;;;;;;;0.65;0.60;;;17.90;65.40;;;;;;5076053;28;20414;-38
2021/03/13 01:42:21;;;;;;;1.23;0.75;;;17.90;65.40;;;;;;5075974;28;20033;-41
2021/03/13 01:44:47;;;;;;;0.57;0.50;;;17.80;65.10;;;;;;5076317;28;20418;-40
2021/03/13 01:47:20;;;;;;;1.02;0.70;;;17.90;65.20;;;;;;5077487;28;20036;-39
2021/03/13 01:49:46;;;;;;;0.80;0.55;;;17.80;65.20;;;;;;5090711;28;20106;-38
2021/03/13 01:52:11;;;;;;;1.05;0.70;;;17.80;65.40;;;;;;5082366;28;20142;-40
2021/03/13 01:54:37;;;;;;;1.05;0.75;;;17.80;65.50;;;;;;5089555;28;20469;-41
2021/03/13 01:57:04;;;;;;;1.00;0.73;;;17.80;65.50;;;;;;5089851;28;20505;-40
2021/03/13 01:59:30;;;;;;;1.48;0.75;;;17.80;65.50;;;;;;5086264;28;20021;-41
2021/03/13 02:01:55;;;;;;;1.48;0.65;;;17.70;65.60;;;;;;5092252;28;20531;-41
2021/03/13 02:04:21;;;;;;;1.00;0.60;;;17.70;65.60;;;;;;5089299;28;20032;-41
2021/03/13 02:07:01;;;;;;;0.50;0.50;;;17.80;65.50;;;;;;5090627;28;20032;-38
2021/03/13 02:09:34;;;;;;;0.90;0.68;;;17.80;65.30;;;;;;5090882;28;20032;-36
2021/03/13 02:12:18;;;;;;;0.95;0.73;;;17.80;65.40;;;;;;5088922;28;20119;-38
2021/03/13 02:14:47;;;;;;;1.35;0.50;;;17.80;65.30;;;;;;5088163;28;20080;-39
2021/03/13 02:17:33;;;;;;;1.10;0.60;;;17.80;65.30;;;;;;5086680;28;20020;-41
2021/03/13 02:20:19;;;;;;;0.52;0.50;;;17.80;65.30;;;;;;5086153;28;20431;-40
2021/03/13 02:22:45;;;;;;;1.00;0.73;;;17.70;65.40;;;;;;5088398;28;20024;-39
2021/03/13 02:25:21;;;;;;;1.50;0.60;;;17.80;65.40;;;;;;5072498;28;20020;-40
2021/03/13 02:28:28;;;;;;;0.73;0.55;;;17.80;65.30;;;;;;5090623;28;20012;-41
2021/03/13 02:30:54;;;;;;;0.50;0.40;;;17.80;65.20;;;;;;5010380;28;20121;-41
2021/03/13 02:33:32;;;;;;;0.70;0.50;;;17.80;65.00;;;;;;5010159;28;20040;-39
2021/03/13 02:36:02;;;;;;;0.82;0.60;;;17.80;65.40;;;;;;5004536;28;20030;-39
2021/03/13 02:38:47;;;;;;;1.10;0.73;;;17.80;65.20;;;;;;5022499;28;20045;-40
2021/03/13 02:41:16;;;;;;;1.05;0.52;;;17.70;65.20;;;;;;4994882;28;20435;-39
2021/03/13 02:43:45;;;;;;;0.73;0.60;;;17.70;65.30;;;;;;4995173;28;20033;-40
2021/03/13 02:46:11;;;;;;;0.73;0.45;;;17.80;65.30;;;;;;4995561;28;20038;-39
2021/03/13 02:48:36;;;;;;;0.88;0.70;;;17.90;65.20;;;;;;5008115;28;20087;-42
2021/03/13 02:51:02;;;;;;;0.57;0.40;;;17.80;65.20;;;;;;4987741;28;20042;-40
2021/03/13 02:53:27;;;;;;;0.77;0.68;;;17.80;65.30;;;;;;5001433;28;20045;-40
2021/03/13 02:55:53;;;;;;;0.80;0.60;;;17.80;65.30;;;;;;5014127;28;20613;-39
2021/03/13 02:58:19;;;;;;;0.65;0.50;;;17.80;65.30;;;;;;4977607;28;20558;-41
2021/03/13 03:00:45;;;;;;;0.90;0.70;;;17.80;65.40;;;;;;5007255;28;20121;-39
2021/03/13 03:03:11;;;;;;;1.15;0.60;;;17.80;65.50;;;;;;5002756;28;20579;-38
2021/03/13 03:05:37;;;;;;;0.80;0.50;;;17.80;65.40;;;;;;5011042;28;20028;-40
2021/03/13 03:08:05;;;;;;;0.85;0.70;;;17.80;65.30;;;;;;5092543;28;20025;-40
2021/03/13 03:10:32;;;;;;;1.05;0.60;;;17.80;65.30;;;;;;5071154;28;20581;-40
2021/03/13 03:12:58;;;;;;;0.90;0.60;;;17.80;65.30;;;;;;5083504;28;20019;-40
2021/03/13 03:15:25;;;;;;;0.95;0.57;;;17.70;65.20;;;;;;5077669;28;20527;-40
2021/03/13 03:17:52;;;;;;;0.52;0.45;;;17.70;65.30;;;;;;5079350;28;20016;-40
2021/03/13 03:20:17;;;;;;;0.88;0.60;;;17.80;65.20;;;;;;5087146;28;20025;-40
2021/03/13 03:22:43;;;;;;;0.65;0.50;;;17.70;65.30;;;;;;5089049;28;20027;-40
2021/03/13 03:25:09;;;;;;;1.60;0.75;;;17.70;65.30;;;;;;5077065;28;20394;-40
2021/03/13 03:27:49;;;;;;;0.73;0.50;;;17.70;65.40;;;;;;5078948;28;20013;-40
2021/03/13 03:30:18;;;;;;;0.50;0.50;;;17.70;65.30;;;;;;5078068;28;20044;-40
2021/03/13 03:32:44;;;;;;;0.55;0.52;;;17.60;65.40;;;;;;5080428;28;20028;-40
2021/03/13 03:35:10;;;;;;;0.57;0.50;;;17.70;65.40;;;;;;5089392;28;20030;-41
2021/03/13 03:37:36;;;;;;;1.17;0.70;;;17.70;65.30;;;;;;5073997;28;20398;-39
2021/03/13 03:40:03;;;;;;;0.82;0.43;;;17.70;65.30;;;;;;5087298;28;20036;-40
2021/03/13 03:42:28;;;;;;;1.00;0.68;;;17.70;65.30;;;;;;5075908;28;20032;-41
2021/03/13 03:44:54;;;;;;;0.80;0.57;;;17.70;65.20;;;;;;5081128;28;20029;-41
2021/03/13 03:47:19;;;;;;;0.75;0.60;;;17.70;65.20;;;;;;5086704;28;20027;-40
2021/03/13 03:49:45;;;;;;;0.57;0.50;;;17.70;65.20;;;;;;5088025;28;20090;-40
2021/03/13 03:52:10;;;;;;;2.15;0.60;;;17.70;65.10;;;;;;5074839;28;20028;-40
2021/03/13 03:54:36;;;;;;;0.70;0.45;;;17.80;65.10;;;;;;5086546;28;20401;-39
2021/03/13 03:57:03;;;;;;;1.13;0.60;;;17.80;65.10;;;;;;5090653;28;20065;-38
2021/03/13 03:59:29;;;;;;;1.00;0.40;;;17.80;65.00;;;;;;5082459;28;20035;-39
2021/03/13 04:01:54;;;;;;;1.20;0.65;;;17.80;65.10;;;;;;5082677;28;20486;-39
2021/03/13 04:04:21;;;;;;;0.70;0.60;;;17.70;65.00;;;;;;5078519;28;20024;-40
2021/03/13 04:06:48;;;;;;;0.60;0.55;;;17.70;65.90;;;;;;5076613;28;20070;-40
2021/03/13 04:09:14;;;;;;;2.08;0.80;;;17.80;65.00;;;;;;5080138;28;20032;-38
2021/03/13 04:11:40;;;;;;;0.95;0.85;;;17.90;64.80;;;;;;5086505;28;20027;-40
2021/03/13 04:14:05;;;;;;;1.35;0.80;;;17.80;64.80;;;;;;5091177;28;20410;-39
2021/03/13 04:16:31;;;;;;;0.70;0.50;;;17.80;65.00;;;;;;5087695;28;20496;-40
2021/03/13 04:18:59;;;;;;;1.50;0.60;;;17.80;64.90;;;;;;5086757;28;20103;-39
2021/03/13 04:21:26;;;;;;;0.90;0.50;;;17.70;65.20;;;;;;5079638;28;20021;-39
2021/03/13 04:23:52;;;;;;;0.60;0.50;;;17.70;65.20;;;;;;5076436;28;20044;-40
2021/03/13 04:26:18;;;;;;;0.68;0.63;;;17.70;65.10;;;;;;5074814;28;20490;-39
2021/03/13 04:28:47;;;;;;;0.90;0.63;;;17.70;65.10;;;;;;5088834;28;20060;-40
2021/03/13 04:31:13;;;;;;;1.02;0.40;;;17.70;65.30;;;;;;5070894;28;20028;-37
2021/03/13 04:33:39;;;;;;;0.90;0.77;;;17.60;65.20;;;;;;5079162;28;20033;-40
2021/03/13 04:36:04;;;;;;;0.70;0.70;;;17.70;65.20;;;;;;5096292;28;20035;-40
2021/03/13 04:38:30;;;;;;;0.85;0.60;;;17.60;65.30;;;;;;5084455;28;20040;-37
2021/03/13 04:40:56;;;;;;;0.65;0.65;;;17.60;65.10;;;;;;5077540;28;20025;-39
2021/03/13 04:43:23;;;;;;;0.70;0.60;;;17.70;65.20;;;;;;5088786;28;20099;-38
2021/03/13 04:45:48;;;;;;;0.40;0.35;;;17.60;65.00;;;;;;5085054;28;20466;-39
2021/03/13 04:48:14;;;;;;;0.70;0.52;;;17.70;65.00;;;;;;5084484;28;20086;-38
2021/03/13 04:50:40;;;;;;;0.80;0.70;;;17.70;65.00;;;;;;5083952;28;20037;-39
2021/03/13 04:53:06;;;;;;;0.65;0.65;;;17.70;65.10;;;;;;5075446;28;20060;-39
2021/03/13 04:55:31;;;;;;;0.50;0.40;;;17.60;65.00;;;;;;5071806;28;20020;-39
2021/03/13 04:57:57;;;;;;;0.77;0.50;;;17.60;65.20;;;;;;5075717;28;20024;-37
2021/03/13 05:00:23;;;;;;;0.50;0.50;;;17.60;65.30;;;;;;5078422;28;20029;-38
2021/03/13 05:02:49;;;;;;;0.60;0.40;;;17.60;65.10;;;;;;5076731;28;20104;-39
2021/03/13 05:05:14;;;;;;;0.35;0.32;;;17.60;66.00;;;;;;5075774;28;20123;-37
2021/03/13 05:07:40;;;;;;;0.50;0.40;;;17.60;65.20;;;;;;5072386;28;20081;-39
2021/03/13 05:10:08;;;;;;;0.38;0.38;;;17.60;65.00;;;;;;5090012;28;20036;-40
2021/03/13 05:12:34;;;;;;;0.68;0.28;;;17.60;65.10;;;;;;5086592;28;20032;-39
2021/03/13 05:15:01;;;;;;;0.45;0.32;;;17.70;64.90;;;;;;5087009;28;20035;-38
2021/03/13 05:17:27;;;;;;;0.70;0.70;;;17.70;65.00;;;;;;5085284;28;20017;-39
2021/03/13 05:19:52;;;;;;;0.60;0.55;;;17.80;64.90;;;;;;5088374;28;20039;-37
2021/03/13 05:22:18;;;;;;;0.75;0.40;;;17.70;64.80;;;;;;5087808;28;20012;-39
2021/03/13 05:24:43;;;;;;;0.77;0.47;;;17.80;64.70;;;;;;5088927;28;20429;-41
2021/03/13 05:27:09;;;;;;;0.55;0.32;;;17.80;64.60;;;;;;5087733;28;20031;-40
2021/03/13 05:29:35;;;;;;;0.55;0.50;;;17.80;64.70;;;;;;5086290;28;20043;-41
2021/03/13 05:32:00;;;;;;;0.50;0.40;;;17.80;64.70;;;;;;5088321;28;20012;-43
2021/03/13 05:34:26;;;;;;;0.65;0.38;;;17.80;64.70;;;;;;5087535;28;20032;-38
2021/03/13 05:36:51;;;;;;;0.50;0.40;;;17.80;64.50;;;;;;5089098;28;20016;-40
2021/03/13 05:39:17;;;;;;;0.43;0.38;;;17.80;64.60;;;;;;5083634;28;20052;-38
2021/03/13 05:41:44;;;;;;;0.57;0.40;;;17.80;64.50;;;;;;5083944;28;20051;-43
2021/03/13 05:44:09;;;;;;;0.47;0.43;;;17.70;64.60;;;;;;5083369;28;20024;-41
2021/03/13 05:46:38;;;;;;;0.80;0.60;;;17.70;64.70;;;;;;5112986;28;20395;-39
2021/03/13 05:49:07;;;;;;;0.95;0.60;;;17.70;64.80;;;;;;5079146;28;20031;-40
2021/03/13 05:51:42;;;;;;;0.73;0.52;;;17.70;64.90;;;;;;5079121;28;20528;-40
2021/03/13 05:54:08;;;;;;;0.35;0.35;;;17.70;64.70;;;;;;5077760;28;20076;-40
2021/03/13 05:56:34;;;;;;;0.43;0.40;;;17.70;64.70;;;;;;5079723;28;20520;-41
2021/03/13 05:59:00;;;;;;;0.55;0.30;;;17.70;64.70;;;;;;5081793;28;20025;-40
2021/03/13 06:01:27;;;;;;;0.75;0.40;;;17.80;64.60;;;;;;5083007;28;20542;-41
2021/03/13 06:03:52;;;;;;;0.43;0.40;;;17.80;64.40;;;;;;5089020;28;20020;-37
2021/03/13 06:06:19;;;;;;;0.55;0.40;;;17.80;64.20;;;;;;5082800;28;20088;-41
2021/03/13 06:08:44;;;;;;;0.45;0.30;;;17.80;65.10;;;;;;5085092;28;20379;-41
2021/03/13 06:11:10;;;;;;;0.40;0.40;;;17.80;64.40;;;;;;5069268;28;20062;-41
2021/03/13 06:13:36;;;;;;;0.40;0.38;;;17.70;64.50;;;;;;5087057;28;20039;-40
2021/03/13 06:16:01;;;;;;;0.50;0.30;;;17.70;64.60;;;;;;5084632;28;20103;-40
2021/03/13 06:18:49;;;;;;;0.63;0.40;;;17.70;64.60;;;;;;5084915;28;20031;-38
2021/03/13 06:21:29;;;;;;;0.55;0.40;;;17.60;64.70;;;;;;5083224;28;20060;-40
2021/03/13 06:24:02;;;;;;;0.85;0.52;;;17.60;64.90;;;;;;5086855;28;20518;-40
2021/03/13 06:26:28;;;;;;;0.50;0.40;;;17.60;64.90;;;;;;5086393;28;20020;-40
2021/03/13 06:28:54;;;;;;;0.40;0.40;;;17.60;64.70;;;;;;5086062;28;20032;-40
2021/03/13 06:31:27;;;;;;;0.57;0.47;;;17.60;64.60;;;;;;5068961;28;20398;-41
2021/03/13 06:33:53;;;;;;;1.13;0.43;;;17.60;64.80;;;;;;5089419;28;20077;-37
2021/03/13 06:36:23;;;;;;;0.52;0.32;;;17.60;64.80;;;;;;5081050;28;20037;-38
2021/03/13 06:38:49;;;;;;;0.88;0.40;;;17.60;64.70;;;;;;5078156;28;20049;-41
2021/03/13 06:41:24;;;;;;;0.35;0.30;;;17.60;64.70;;;;;;5076925;28;20036;-41
2021/03/13 06:43:51;;;;;;;0.40;0.40;;;17.60;64.60;;;;;;5090628;28;20024;-41
2021/03/13 06:46:20;;;;;;;0.40;0.40;;;17.70;64.60;;;;;;5075069;28;20024;-40
2021/03/13 06:48:49;;;;;;;1.33;0.30;;;17.80;64.50;;;;;;5078607;28;20024;-38
2021/03/13 06:51:36;;;;;;;0.95;0.43;;;17.70;64.40;;;;;;5079116;28;20190;-39
2021/03/13 06:54:17;;;;;;;0.45;0.40;;;17.80;64.50;;;;;;5080007;28;20108;-40
2021/03/13 06:56:46;;;;;;;0.40;0.30;;;17.70;64.50;;;;;;5078361;28;20021;-41
2021/03/13 06:59:22;;;;;;;0.82;0.30;;;17.80;64.40;;;;;;5084212;28;20111;-39
2021/03/13 07:01:57;;;;;;;0.52;0.30;;;17.80;64.30;;;;;;5090607;28;20020;-40
2021/03/13 07:04:42;;;;;;;0.50;0.30;;;17.80;64.40;;;;;;5086036;28;20040;-40
2021/03/13 07:07:09;;;;;;;0.30;0.30;;;17.70;64.40;;;;;;5089985;28;20080;-40
2021/03/13 07:09:48;;;;;;;0.82;0.45;;;17.70;64.30;;;;;;5089751;28;20119;-41
2021/03/13 07:12:41;;;;;;;1.15;0.25;;;17.70;64.20;;;;;;5071262;28;20048;-41
2021/03/13 07:15:19;;;;;;;0.30;0.20;;;17.70;64.40;;;;;;5088169;28;20439;-41
2021/03/13 07:17:50;;;;;;;0.20;0.20;;;17.80;64.40;;;;;;5086217;28;20020;-40
2021/03/13 07:20:23;;;;;;;0.30;0.30;;;17.80;64.30;;;;;;5086355;28;20143;-41
2021/03/13 07:22:51;;;;;;;0.50;0.38;;;17.70;64.20;;;;;;5120745;27;20023;-39
2021/03/13 07:25:21;;;;;;;0.40;0.30;;;17.80;64.20;;;;;;5089686;28;20028;-41
2021/03/13 07:27:46;;;;;;;0.60;0.50;;;17.80;64.20;;;;;;5085826;28;20035;-40
2021/03/13 07:30:13;;;;;;;0.55;0.30;;;17.80;64.20;;;;;;5087199;28;20040;-40
2021/03/13 07:32:41;;;;;;;0.30;0.30;;;17.80;64.10;;;;;;5085511;28;20411;-42
2021/03/13 07:35:09;;;;;;;0.63;0.30;;;17.70;64.20;;;;;;5088228;28;20032;-39
2021/03/13 07:37:34;;;;;;;0.47;0.38;;;17.70;64.40;;;;;;5086074;28;20024;-41
2021/03/13 07:40:00;;;;;;;0.60;0.45;;;17.70;64.60;;;;;;5060086;28;20053;-44
2021/03/13 07:42:25;;;;;;;0.30;0.30;;;17.70;64.60;;;;;;5100400;28;20032;-40
2021/03/13 07:44:51;;;;;;;0.40;0.30;;;17.70;64.50;;;;;;5081148;28;20016;-42
2021/03/13 07:47:18;;;;;;;0.50;0.40;;;17.70;64.40;;;;;;5084337;28;20028;-42
2021/03/13 07:49:43;;;;;;;0.55;0.43;;;17.70;64.30;;;;;;5088170;28;20417;-42
2021/03/13 07:52:10;;;;;;;0.98;0.57;;;17.70;64.20;;;;;;5085665;28;20036;-43
2021/03/13 07:54:46;;;;;;;0.43;0.30;;;17.70;64.20;;;;;;5086330;28;20032;-39
2021/03/13 07:57:12;;;;;;;0.30;0.30;;;17.80;64.30;;;;;;5084241;28;20502;-41
2021/03/13 07:59:51;;;;;;;1.77;0.30;;;17.70;64.20;;;;;;5086410;28;20027;-38
2021/03/13 08:02:31;;;;;;;0.60;0.60;;;17.80;64.30;;;;;;5088543;28;20455;-42
2021/03/13 08:05:00;;;;;;;0.30;0.28;;;17.80;64.20;;;;;;5090059;28;20032;-41
2021/03/13 08:07:49;;;;;;;0.30;0.30;;;17.70;64.20;;;;;;5087082;28;20034;-41
2021/03/13 08:10:43;;;;;;;0.57;0.40;;;17.80;64.20;;;;;;5087095;28;20047;-42
2021/03/13 08:13:10;;;;;;;0.30;0.30;;;17.80;64.30;;;;;;5076532;28;20091;-39
2021/03/13 08:15:43;;;;;;;0.73;0.70;;;17.80;64.10;;;;;;5084704;28;20028;-42
2021/03/13 08:18:12;;;;;;;0.45;0.32;;;17.80;64.00;;;;;;5084669;28;20044;-42
2021/03/13 08:20:38;;;;;;;0.60;0.40;;;17.80;64.00;;;;;;5080852;28;20031;-43
2021/03/13 08:23:18;;;;;;;0.82;0.55;;;17.70;63.90;;;;;;5087051;28;20024;-41
2021/03/13 08:25:56;;;;;;;0.68;0.32;;;17.70;63.90;;;;;;5074394;28;20104;-43
2021/03/13 08:29:04;;;;;;;0.85;0.40;;;17.70;63.80;;;;;;5074102;28;20490;-40
2021/03/13 08:31:33;;;;;;;0.50;0.30;;;17.70;64.00;;;;;;5009142;28;20467;-41
2021/03/13 08:34:18;;;;;;;0.55;0.30;;;17.70;64.20;;;;;;5014340;28;20022;-42
2021/03/13 08:36:51;;;;;;;0.68;0.40;;;17.60;64.40;;;;;;5005631;28;20440;-42
2021/03/13 08:39:20;;;;;;;1.88;0.82;;;17.60;64.50;;;;;;5013147;28;20080;-42
2021/03/13 08:41:48;;;;;;;0.80;0.50;;;17.60;64.50;;;;;;5014183;28;20519;-41
2021/03/13 08:44:15;;;;;;;0.50;0.30;;;17.60;64.60;;;;;;5009830;28;20026;-40
2021/03/13 08:46:52;;;;;;;0.47;0.40;;;17.50;64.70;;;;;;5009790;28;20034;-41
2021/03/13 08:49:21;;;;;;;0.60;0.45;;;17.50;64.80;;;;;;5010450;28;20092;-40
2021/03/13 08:51:47;;;;;;;0.82;0.40;;;17.50;64.80;;;;;;5022878;28;20411;-42
2021/03/13 08:54:12;;;;;;;0.40;0.20;;;17.60;64.70;;;;;;4991455;28;20038;-42
2021/03/13 08:56:42;;;;;;;0.60;0.40;;;17.60;64.60;;;;;;5010056;28;20044;-40
2021/03/13 08:59:12;;;;;;;1.05;0.60;;;17.60;64.60;;;;;;4998682;28;20098;-42
2021/03/13 09:01:38;;;;;;;0.60;0.50;;;17.70;64.10;;;;;;5013228;28;20086;-41
2021/03/13 09:04:04;;;;;;;0.57;0.40;;;17.60;63.90;;;;;;5082657;28;20525;-42
2021/03/13 09:06:29;;;;;;;0.68;0.50;;;17.60;64.90;;;;;;5086075;28;20024;-41
2021/03/13 09:09:12;;;;;;;1.25;0.75;;;17.60;66.00;;;;;;5084430;28;20127;-42
2021/03/13 09:11:40;;;;;;;0.57;0.45;;;17.50;66.40;;;;;;5090630;28;20528;-41
2021/03/13 09:14:05;;;;;;;0.70;0.60;;;17.50;66.20;;;;;;5088541;28;20020;-42
2021/03/13 09:16:38;;;;;;;0.73;0.40;;;17.40;66.10;;;;;;5089197;28;20027;-41
2021/03/13 09:19:07;;;;;;;0.70;0.45;;;17.40;66.30;;;;;;5088038;28;20464;-44
2021/03/13 09:21:44;;;;;;;0.88;0.70;;;17.50;66.30;;;;;;5085852;28;20068;-41
2021/03/13 09:24:14;;;;;;;1.02;0.75;;;17.40;66.20;;;;;;5084187;28;20052;-42
2021/03/13 09:26:40;;;;;;;1.00;0.57;;;17.50;66.00;;;;;;5086643;28;20037;-43
2021/03/13 09:29:05;;;;;;;4.13;0.80;;;17.60;65.50;;;;;;5085354;28;20450;-43
2021/03/13 09:31:31;;;;;;;0.88;0.60;;;17.70;65.70;;;;;;5086923;28;20497;-43
2021/03/13 09:34:16;;;;;;;0.85;0.73;;;17.60;65.20;;;;;;5086806;28;20107;-43
2021/03/13 09:36:44;;;;;;;0.77;0.50;;;17.60;65.20;;;;;;5110819;28;20451;-41
2021/03/13 09:39:10;;;;;;;1.30;0.73;;;17.70;65.30;;;;;;5085256;28;20472;-39
2021/03/13 09:41:36;;;;;;;0.63;0.50;;;17.70;65.20;;;;;;5084737;28;20473;-40
2021/03/13 09:44:01;;;;;;;0.70;0.55;;;17.70;65.00;;;;;;5084865;28;20024;-46
2021/03/13 09:46:27;;;;;;;1.77;0.63;;;17.70;64.80;;;;;;5084704;28;20055;-41
2021/03/13 09:48:52;;;;;;;0.82;0.50;;;17.70;64.90;;;;;;5084694;28;20043;-41
2021/03/13 09:51:18;;;;;;;0.82;0.50;;;17.70;65.00;;;;;;5083683;28;20067;-43
2021/03/13 09:53:44;;;;;;;1.02;0.60;;;17.60;65.10;;;;;;5109227;28;20024;-37
2021/03/13 09:56:09;;;;;;;0.75;0.60;;;17.60;65.20;;;;;;5084151;28;20024;-40
2021/03/13 09:58:35;;;;;;;1.23;0.70;;;17.60;65.00;;;;;;5083612;28;20474;-40
2021/03/13 10:01:01;;;;;;;1.10;0.50;;;17.60;65.10;;;;;;5085880;28;20032;-41
2021/03/13 10:03:26;;;;;;;0.88;0.60;;;17.60;65.00;;;;;;5077284;28;20017;-43
2021/03/13 10:05:56;;;;;;;1.45;0.70;;;17.60;65.00;;;;;;5090499;28;20039;-43
2021/03/13 10:08:31;;;;;;;1.23;0.50;;;17.70;64.80;;;;;;5081505;28;20043;-41
2021/03/13 10:10:56;;;;;;;0.35;0.30;;;17.80;64.10;;;;;;5088736;28;20040;-43
2021/03/13 10:13:23;;;;;;;1.88;0.60;;;17.70;63.80;;;;;;5074248;28;20111;-43
2021/03/13 10:15:49;;;;;;;0.77;0.63;;;17.90;64.20;;;;;;5088225;28;20048;-42
2021/03/13 10:18:16;;;;;;;0.60;0.47;;;17.90;63.80;;;;;;5081738;28;20079;-42
2021/03/13 10:20:50;;;;;;;0.88;0.47;;;18.10;63.50;;;;;;5080263;28;20035;-42
2021/03/13 10:23:16;;;;;;;1.17;0.45;;;18.10;63.00;;;;;;5087136;28;20465;-40
2021/03/13 10:25:43;;;;;;;1.08;0.65;;;18.20;62.80;;;;;;5090136;28;20028;-43
2021/03/13 10:28:10;;;;;;;1.75;0.40;;;18.10;62.70;;;;;;5077086;28;20386;-40
2021/03/13 10:30:37;;;;;;;0.80;0.57;;;18.10;62.60;;;;;;5079861;28;20404;-42
2021/03/13 10:33:02;;;;;;;1.27;0.40;;;18.20;62.40;;;;;;5083509;28;20032;-42
2021/03/13 10:35:30;;;;;;;1.65;0.60;;;18.30;62.30;;;;;;5090775;28;20020;-42
2021/03/13 10:37:58;;;;;;;0.47;0.40;;;18.20;62.40;;;;;;5084531;28;20393;-38
2021/03/13 10:40:46;;;;;;;2.25;0.80;;;18.20;62.20;;;;;;5092248;28;20036;-42
2021/03/13 10:43:21;;;;;;;0.80;0.63;;;18.20;62.30;;;;;;5087508;28;20032;-39
2021/03/13 10:45:58;;;;;;;0.80;0.43;;;18.10;62.40;;;;;;5091483;28;20035;-40
2021/03/13 10:48:25;;;;;;;0.60;0.45;;;18.20;62.50;;;;;;5089843;28;20016;-42
2021/03/13 10:50:50;;;;;;;1.77;0.50;;;18.20;61.90;;;;;;5088909;28;20039;-44
2021/03/13 10:53:27;;;;;;;1.67;0.60;;;18.20;62.30;;;;;;5090018;28;20028;-41
2021/03/13 10:55:53;;;;;;;1.30;0.55;;;18.20;62.50;;;;;;5089902;28;20490;-42
2021/03/13 10:58:38;;;;;;;0.93;0.70;;;18.20;62.30;;;;;;5087348;28;20028;-42
2021/03/13 11:01:05;;;;;;;1.48;0.98;;;18.20;61.80;;;;;;5079064;28;20048;-42
2021/03/13 11:03:30;;;;;;;1.25;0.90;;;18.20;61.90;;;;;;5086949;28;20023;-40
2021/03/13 11:05:56;;;;;;;0.77;0.45;;;18.30;61.70;;;;;;5115997;27;20020;-41
2021/03/13 11:08:23;;;;;;;1.45;1.25;;;18.40;61.10;;;;;;5089731;28;20092;-42
2021/03/13 11:10:49;;;;;;;2.67;1.20;;;18.40;61.20;;;;;;5089387;28;20490;-39
2021/03/13 11:13:15;;;;;;;1.40;1.30;;;18.40;61.50;;;;;;5073888;28;20168;-38
2021/03/13 11:15:41;;;;;;;2.15;1.63;;;18.40;62.50;;;;;;5093001;28;20115;-41
2021/03/13 11:18:06;;;;;;;1.95;1.50;;;18.40;62.50;;;;;;5086721;28;20031;-40
2021/03/13 11:20:33;;;;;;;5.88;1.50;;;18.40;61.70;;;;;;5086923;28;20524;-40
2021/03/13 11:22:58;;;;;;;1.80;1.70;;;18.30;62.80;;;;;;5075942;28;20036;-40
2021/03/13 11:25:24;;;;;;;1.50;1.40;;;18.30;62.80;;;;;;5090520;28;20055;-40
2021/03/13 11:27:50;;;;;;;2.05;1.60;;;18.20;62.80;;;;;;4728666;27;10000565;-40
2021/03/13 11:30:16;;;;;;;1.90;1.73;;;18.30;63.80;;;;;;5083327;28;20028;-37
2021/03/13 11:32:41;;;;;;;1.30;1.20;;;18.30;62.60;;;;;;5084938;28;20020;-39
2021/03/13 11:35:08;;;;;;;1.65;1.55;;;18.40;62.30;;;;;;5075087;28;20478;-42
2021/03/13 11:37:34;;;;;;;2.60;1.85;;;18.50;62.70;;;;;;5089229;28;20032;-39
2021/03/13 11:39:59;;;;;;;3.33;1.30;;;18.40;63.00;;;;;;5077906;28;20124;-44
2021/03/13 11:42:28;;;;;;;1.30;1.20;;;18.40;63.80;;;;;;5085121;28;20111;-41
2021/03/13 11:44:57;;;;;;;2.25;1.27;;;18.40;64.00;;;;;;5086586;28;20036;-41
2021/03/13 11:47:28;;;;;;;1.67;1.50;;;18.60;63.50;;;;;;5080137;28;20043;-40
2021/03/13 11:49:54;;;;;;;2.10;1.83;;;18.50;63.80;;;;;;5085993;28;20114;-39
2021/03/13 11:52:20;;;;;;;1.23;1.13;;;18.60;64.00;;;;;;5090177;28;20031;-42
2021/03/13 11:54:46;;;;;;;1.50;1.40;;;18.60;64.20;;;;;;5074910;28;20032;-43
2021/03/13 11:57:12;;;;;;;1.05;0.95;;;18.60;63.90;;;;;;5086252;28;20047;-45
2021/03/13 11:59:38;;;;;;;1.80;1.20;;;18.70;64.10;;;;;;5089496;28;20053;-43
2021/03/13 12:02:04;;;;;;;1.73;0.90;;;18.70;64.10;;;;;;5086541;28;20027;-42
2021/03/13 12:04:29;;;;;;;1.50;1.02;;;18.80;64.10;;;;;;5083920;28;20078;-43
2021/03/13 12:06:55;;;;;;;1.55;1.20;;;18.80;64.20;;;;;;5086344;28;20101;-49
2021/03/13 12:09:20;;;;;;;1.77;0.90;;;18.80;64.10;;;;;;5083909;28;20031;-48
2021/03/13 12:11:46;;;;;;;2.70;1.35;;;18.90;63.80;;;;;;5081772;28;20493;-33
2021/03/13 12:14:12;;;;;;;1.52;1.20;;;19.00;63.80;;;;;;5081059;28;20029;-50
2021/03/13 12:16:37;;;;;;;1.35;0.90;;;19.00;63.90;;;;;;5085437;28;20051;-49
2021/03/13 12:19:03;;;;;;;1.40;0.95;;;19.00;63.90;;;;;;5087489;28;20528;-45
2021/03/13 12:21:28;;;;;;;0.80;0.80;;;18.90;64.00;;;;;;5081276;28;20153;-49
2021/03/13 12:23:54;;;;;;;3.13;0.93;;;18.80;64.10;;;;;;5083410;28;20024;-43
2021/03/13 12:26:19;;;;;;;0.95;0.88;;;18.70;64.00;;;;;;5084701;28;20095;-43
2021/03/13 12:28:47;;;;;;;1.17;0.90;;;18.70;64.00;;;;;;5084745;28;20016;-46
2021/03/13 12:31:14;;;;;;;2.70;1.10;;;18.70;64.00;;;;;;5082811;28;20129;-52
2021/03/13 12:33:39;;;;;;;1.30;1.15;;;18.60;63.80;;;;;;5087028;28;20081;-46
2021/03/13 12:36:06;;;;;;;1.98;1.00;;;18.60;63.80;;;;;;5084749;28;20040;-47
2021/03/13 12:38:31;;;;;;;1.27;1.00;;;18.70;63.60;;;;;;5081675;28;20045;-45
2021/03/13 12:40:57;;;;;;;1.63;1.30;;;18.70;63.30;;;;;;5084081;28;20036;-44
2021/03/13 12:43:22;;;;;;;1.80;1.05;;;18.80;63.20;;;;;;5082910;28;20494;-49
2021/03/13 12:45:48;;;;;;;1.65;1.20;;;18.80;63.40;;;;;;5088891;28;20027;-42
2021/03/13 12:48:14;;;;;;;1.85;1.15;;;18.80;63.20;;;;;;5081443;28;20093;-42
2021/03/13 12:50:39;;;;;;;2.80;0.98;;;18.80;63.20;;;;;;4733086;28;10000390;-41